Time;durP1;ratioP1;P1;durP2;ratioP2;P2;SDS_P1;SDS_P2;PMS_P1;PMS_P2;Temp;Humidity;BMP_temperature;BMP_pressure;BME280_temperature;BME280_humidity;BME280_pressure;Samples;Min_cycle;Max_cycle;Signal;HPM_P1;HPM_P2
2022/04/04 00:00:18;;;;;;;3.85;2.85;;;;;;;-1.68;64.10;100998.28;5048604;28;20040;-73
2022/04/04 00:02:43;;;;;;;4.25;3.17;;;;;;;-1.69;64.95;100994.00;5047929;28;20037;-73
2022/04/04 00:05:11;;;;;;;6.00;3.13;;;;;;;-1.75;64.61;100995.06;5042680;28;20041;-72
2022/04/04 00:07:37;;;;;;;4.90;3.10;;;;;;;-1.77;64.54;100996.03;5044347;28;20033;-73
2022/04/04 00:10:03;;;;;;;4.40;3.20;;;;;;;-1.79;64.60;100993.53;5047563;28;20493;-73
2022/04/04 00:12:30;;;;;;;4.07;2.75;;;;;;;-1.81;64.29;100992.75;5023736;28;20124;-73
2022/04/04 00:14:55;;;;;;;5.13;3.45;;;;;;;-1.80;64.12;100998.75;5029922;28;20048;-73
2022/04/04 00:17:21;;;;;;;5.32;3.40;;;;;;;-1.80;64.37;100998.75;5050283;28;20025;-73
2022/04/04 00:19:46;;;;;;;6.68;4.43;;;;;;;-1.79;64.46;100997.84;5046904;28;20033;-73
2022/04/04 00:22:12;;;;;;;4.28;2.90;;;;;;;-1.80;64.91;100996.16;5029625;28;20060;-73
2022/04/04 00:24:37;;;;;;;3.67;2.55;;;;;;;-1.79;64.83;100990.06;5048760;28;20120;-73
2022/04/04 00:27:02;;;;;;;3.70;2.70;;;;;;;-1.79;65.00;100987.47;5047958;28;20571;-72
2022/04/04 00:29:28;;;;;;;4.78;3.03;;;;;;;-1.81;64.78;100989.28;5047329;28;20044;-73
2022/04/04 00:31:53;;;;;;;4.25;2.88;;;;;;;-1.83;64.85;100989.38;5046475;28;20037;-73
2022/04/04 00:34:19;;;;;;;4.70;3.10;;;;;;;-1.84;64.85;100984.22;5049619;28;20024;-73
2022/04/04 00:36:45;;;;;;;2.92;2.33;;;;;;;-1.86;65.12;100984.31;5045157;28;20416;-73
2022/04/04 00:39:11;;;;;;;3.33;2.35;;;;;;;-1.89;65.05;100975.78;5052243;28;20494;-73
2022/04/04 00:41:37;;;;;;;4.70;3.15;;;;;;;-1.93;65.27;100978.53;5033524;28;20037;-73
2022/04/04 00:44:03;;;;;;;3.67;2.33;;;;;;;-1.93;64.91;100975.94;5055176;28;20044;-72
2022/04/04 00:46:29;;;;;;;3.88;2.60;;;;;;;-1.94;65.69;100973.38;5048980;28;20037;-72
2022/04/04 00:48:55;;;;;;;4.65;3.00;;;;;;;-1.94;65.68;100970.78;5046224;28;20515;-72
2022/04/04 00:51:20;;;;;;;3.65;2.72;;;;;;;-1.96;65.57;100968.25;5050745;28;20036;-71
2022/04/04 00:53:46;;;;;;;3.60;2.70;;;;;;;-1.97;65.39;100965.75;5044943;28;20099;-72
2022/04/04 00:56:11;;;;;;;4.50;2.85;;;;;;;-1.99;65.26;100973.56;5031941;28;20170;-72
2022/04/04 00:58:38;;;;;;;5.80;3.90;;;;;;;-1.99;65.81;100960.59;5051792;28;20048;-72
2022/04/04 01:01:03;;;;;;;5.65;4.28;;;;;;;-1.95;66.08;100957.00;5047155;28;20065;-72
2022/04/04 01:03:29;;;;;;;8.05;4.43;;;;;;;-1.91;66.06;100962.88;5051129;28;20552;-72
2022/04/04 01:05:57;;;;;;;5.50;4.32;;;;;;;-1.88;66.36;100952.41;5049498;28;20375;-72
2022/04/04 01:08:23;;;;;;;6.38;4.28;;;;;;;-1.85;66.42;100941.09;5049681;28;20037;-73
2022/04/04 01:10:48;;;;;;;7.70;4.05;;;;;;;-1.84;66.31;100938.41;5050367;28;20067;-73
2022/04/04 01:13:14;;;;;;;5.07;3.60;;;;;;;-1.82;66.37;100944.38;5032372;28;20117;-73
2022/04/04 01:15:39;;;;;;;4.88;3.30;;;;;;;-1.85;66.30;100939.31;5046842;28;20433;-73
2022/04/04 01:18:06;;;;;;;5.25;3.45;;;;;;;-1.85;66.53;100943.69;5054641;28;20033;-72
2022/04/04 01:20:32;;;;;;;5.43;3.55;;;;;;;-1.89;66.64;100947.28;5031110;28;20057;-72
2022/04/04 01:22:58;;;;;;;5.32;3.08;;;;;;;-1.97;66.51;100952.78;5033110;28;20064;-73
2022/04/04 01:25:25;;;;;;;3.78;2.80;;;;;;;-2.00;66.72;100950.28;5043708;28;20048;-72
2022/04/04 01:27:51;;;;;;;4.20;2.90;;;;;;;-2.04;66.67;100948.75;5051333;28;20056;-73
2022/04/04 01:30:17;;;;;;;5.15;3.30;;;;;;;-2.06;66.66;100938.44;5046169;28;20068;-73
2022/04/04 01:32:44;;;;;;;5.63;3.65;;;;;;;-2.05;66.64;100936.69;5044169;28;20481;-73
2022/04/04 01:35:10;;;;;;;4.25;3.03;;;;;;;-2.06;66.81;100938.44;5050515;28;20045;-73
2022/04/04 01:37:35;;;;;;;4.90;3.08;;;;;;;-2.09;67.27;100933.38;5035903;28;20071;-73
2022/04/04 01:40:01;;;;;;;5.97;3.88;;;;;;;-2.08;67.12;100929.03;5050248;28;20068;-72
2022/04/04 01:42:26;;;;;;;4.90;3.50;;;;;;;-2.09;67.49;100924.78;5022285;28;20090;-73
2022/04/04 01:44:52;;;;;;;6.35;3.67;;;;;;;-2.10;67.43;100913.53;5036185;28;20029;-73
2022/04/04 01:47:17;;;;;;;4.28;3.00;;;;;;;-2.12;67.35;100920.56;5040013;28;20522;-73
2022/04/04 01:49:42;;;;;;;4.32;2.92;;;;;;;-2.17;67.72;100910.38;5042822;28;20037;-73
2022/04/04 01:52:08;;;;;;;4.80;3.10;;;;;;;-2.19;68.14;100909.59;5031292;28;20037;-73
2022/04/04 01:54:33;;;;;;;5.78;3.63;;;;;;;-2.21;68.13;100908.81;5044164;28;20044;-72
2022/04/04 01:56:59;;;;;;;6.22;3.53;;;;;;;-2.23;68.18;100910.59;5036885;28;20037;-73
2022/04/04 01:59:24;;;;;;;4.90;3.40;;;;;;;-2.25;68.00;100909.81;5041770;28;20036;-73
2022/04/04 02:01:49;;;;;;;6.40;4.57;;;;;;;-2.24;67.96;100915.84;5044198;28;20033;-72
2022/04/04 02:04:14;;;;;;;9.32;4.82;;;;;;;-2.22;68.11;100908.84;5036680;28;20118;-72
2022/04/04 02:06:40;;;;;;;4.45;3.55;;;;;;;-2.19;68.82;100921.72;5049558;28;20118;-73
2022/04/04 02:09:06;;;;;;;7.10;4.70;;;;;;;-2.22;69.24;100917.47;5051568;28;20037;-73
2022/04/04 02:11:31;;;;;;;7.00;4.53;;;;;;;-2.24;68.82;100918.44;5031911;28;20051;-73
2022/04/04 02:13:58;;;;;;;6.10;4.10;;;;;;;-2.26;68.99;100918.50;5048561;28;20051;-72
2022/04/04 02:16:24;;;;;;;6.15;4.10;;;;;;;-2.25;69.26;100921.94;5040588;28;20486;-72
2022/04/04 02:18:50;;;;;;;6.22;4.10;;;;;;;-2.27;68.82;100915.97;5054292;28;20049;-73
2022/04/04 02:21:16;;;;;;;7.75;4.38;;;;;;;-2.25;68.93;100912.41;5048138;28;20501;-73
2022/04/04 02:23:41;;;;;;;6.25;4.40;;;;;;;-2.24;68.97;100918.44;5049766;28;20052;-73
2022/04/04 02:26:07;;;;;;;5.20;3.60;;;;;;;-2.26;69.56;100917.69;5044185;28;20029;-73
2022/04/04 02:28:32;;;;;;;5.10;3.35;;;;;;;-2.25;69.30;100916.75;5048656;28;20394;-73
2022/04/04 02:31:00;;;;;;;5.18;3.47;;;;;;;-2.26;69.35;100915.09;5049621;28;20037;-73
2022/04/04 02:33:25;;;;;;;5.30;3.72;;;;;;;-2.28;69.42;100914.28;5046418;28;20102;-73
2022/04/04 02:35:52;;;;;;;7.72;3.70;;;;;;;-2.29;69.49;100912.59;5042608;28;20041;-73
2022/04/04 02:38:20;;;;;;;4.90;3.50;;;;;;;-2.29;69.53;100907.41;5048215;28;20693;-73
2022/04/04 02:40:46;;;;;;;7.55;4.32;;;;;;;-2.30;69.60;100906.56;5045652;28;20037;-73
2022/04/04 02:43:12;;;;;;;6.53;4.35;;;;;;;-2.29;70.16;100910.00;5048675;28;20700;-73
2022/04/04 02:45:37;;;;;;;8.13;5.03;;;;;;;-2.26;70.05;100907.31;5030388;28;20072;-73
2022/04/04 02:48:03;;;;;;;6.88;4.65;;;;;;;-2.25;70.43;100903.81;5046311;28;20071;-73
2022/04/04 02:50:29;;;;;;;7.28;4.68;;;;;;;-2.24;70.53;100910.66;5048604;28;20461;-73
2022/04/04 02:52:54;;;;;;;7.82;4.78;;;;;;;-2.24;70.63;100906.34;5041489;28;20040;-73
2022/04/04 02:58:04;;;;;;;6.60;4.65;;;;;;;-2.22;70.78;100903.69;5049289;28;20044;-73
2022/04/04 03:00:29;;;;;;;9.68;5.93;;;;;;;-2.21;71.05;100901.03;5044226;28;20041;-73
2022/04/04 03:02:56;;;;;;;9.40;5.20;;;;;;;-2.20;71.22;100905.28;5043406;28;20166;-73
2022/04/04 03:05:22;;;;;;;7.50;5.22;;;;;;;-2.17;70.89;100904.31;5042486;28;20032;-73
2022/04/04 03:07:48;;;;;;;8.48;5.68;;;;;;;-2.16;70.90;100900.84;5030596;28;20395;-73
2022/04/04 03:10:13;;;;;;;9.38;5.57;;;;;;;-2.16;71.22;100903.44;5043393;28;20489;-73
2022/04/04 03:12:46;;;;;;;8.90;5.97;;;;;;;-2.15;71.48;100900.78;5046702;28;20067;-73
2022/04/04 03:15:15;;;;;;;7.65;5.35;;;;;;;-2.12;71.81;100894.66;5047808;28;20126;-73
2022/04/04 03:17:43;;;;;;;8.10;5.80;;;;;;;-2.13;72.26;100903.31;5053729;28;20029;-73
2022/04/04 03:20:10;;;;;;;8.75;5.63;;;;;;;-2.11;72.84;100901.50;5044282;28;20412;-73
2022/04/04 03:22:43;;;;;;;7.95;5.50;;;;;;;-2.08;72.59;100898.78;5032010;28;20505;-73
2022/04/04 03:25:09;;;;;;;8.98;5.60;;;;;;;-2.06;72.86;100898.72;5048214;28;20052;-73
2022/04/04 03:27:39;;;;;;;8.20;5.68;;;;;;;-2.04;72.30;100894.34;5032715;28;20421;-73
2022/04/04 03:30:12;;;;;;;9.43;5.97;;;;;;;-2.04;72.58;100896.94;5049487;28;20029;-73
2022/04/04 03:32:37;;;;;;;8.63;5.25;;;;;;;-2.03;72.68;100888.22;5045338;28;20046;-73
2022/04/04 03:35:04;;;;;;;8.27;5.50;;;;;;;-2.03;72.39;100886.47;5029191;28;20086;-73
2022/04/04 03:37:34;;;;;;;6.78;4.30;;;;;;;-2.04;72.19;100882.22;5026362;28;20083;-73
2022/04/04 03:40:00;;;;;;;6.70;4.30;;;;;;;-2.07;71.65;100884.06;5047987;28;20063;-73
2022/04/04 03:42:25;;;;;;;5.90;4.03;;;;;;;-2.09;72.13;100878.97;5046790;28;20041;-73
2022/04/04 03:44:50;;;;;;;8.15;5.47;;;;;;;-2.08;72.14;100872.88;5045768;28;20041;-73
2022/04/04 03:47:16;;;;;;;8.52;5.68;;;;;;;-2.08;72.80;100879.81;5040976;28;20021;-73
2022/04/04 03:49:42;;;;;;;9.43;6.10;;;;;;;-2.05;72.38;100874.50;5048278;28;20123;-73
2022/04/04 03:52:08;;;;;;;8.60;5.90;;;;;;;-2.03;72.61;100863.16;5048495;28;20041;-73
2022/04/04 03:54:34;;;;;;;10.80;6.05;;;;;;;-2.02;72.92;100864.88;5041230;28;20084;-73
2022/04/04 03:57:00;;;;;;;9.55;6.10;;;;;;;-2.01;73.14;100866.53;5048619;28;20041;-73
2022/04/04 03:59:25;;;;;;;11.13;6.53;;;;;;;-2.00;73.64;100857.88;5047868;28;20055;-73
2022/04/04 04:01:51;;;;;;;10.25;6.38;;;;;;;-1.99;73.54;100859.53;5044006;28;20124;-73
2022/04/04 04:04:16;;;;;;;9.38;6.25;;;;;;;-1.97;72.96;100852.56;5048713;28;20033;-73
2022/04/04 04:06:42;;;;;;;7.40;5.40;;;;;;;-1.96;73.26;100853.38;5049837;28;20043;-73
2022/04/04 04:09:07;;;;;;;7.18;5.15;;;;;;;-1.98;73.01;100858.66;5052902;28;20048;-73
2022/04/04 04:11:33;;;;;;;8.95;5.97;;;;;;;-1.99;73.13;100850.94;5034267;28;20043;-73
2022/04/04 04:14:00;;;;;;;10.13;6.03;;;;;;;-1.98;73.35;100857.78;5043715;28;20044;-73
2022/04/04 04:16:26;;;;;;;10.48;6.30;;;;;;;-1.98;73.09;100847.44;5044775;28;20037;-73
2022/04/04 04:18:51;;;;;;;8.85;6.10;;;;;;;-1.99;73.67;100843.16;5055910;28;20033;-73
2022/04/04 04:21:16;;;;;;;9.93;6.88;;;;;;;-1.98;73.77;100847.44;5051648;28;20037;-73
2022/04/04 04:23:43;;;;;;;10.73;6.45;;;;;;;-1.97;74.31;100851.72;5050064;28;20482;-73
2022/04/04 04:26:11;;;;;;;10.15;6.60;;;;;;;-1.96;74.23;100849.03;5048376;28;20077;-73
2022/04/04 04:28:37;;;;;;;9.27;6.10;;;;;;;-1.93;74.14;100837.75;5050876;28;20044;-73
2022/04/04 04:31:02;;;;;;;8.23;5.35;;;;;;;-1.92;73.69;100844.59;5050613;28;20517;-73
2022/04/04 04:33:29;;;;;;;9.18;6.28;;;;;;;-1.94;73.65;100842.06;5049650;28;20276;-73
2022/04/04 04:35:55;;;;;;;9.88;6.30;;;;;;;-1.88;74.38;100845.28;5050545;28;20029;-73
2022/04/04 04:38:20;;;;;;;9.00;5.95;;;;;;;-1.87;74.33;100847.00;5024953;28;20105;-73
2022/04/04 04:40:46;;;;;;;11.50;7.43;;;;;;;-1.83;74.79;100843.38;5044946;28;20030;-74
2022/04/04 04:43:11;;;;;;;10.45;7.15;;;;;;;-1.81;74.61;100834.63;5048837;28;20036;-73
2022/04/04 04:45:36;;;;;;;9.43;7.10;;;;;;;-1.78;74.86;100831.88;5030538;28;20406;-74
2022/04/04 04:48:02;;;;;;;9.93;6.65;;;;;;;-1.75;74.58;100830.91;5045423;28;20039;-73
2022/04/04 04:50:28;;;;;;;9.77;6.35;;;;;;;-1.72;74.80;100839.41;5048440;28;20095;-73
2022/04/04 04:52:55;;;;;;;12.55;7.03;;;;;;;-1.70;74.65;100831.56;5048605;28;20052;-74
2022/04/04 04:55:21;;;;;;;9.15;6.30;;;;;;;-1.68;74.46;100842.69;5049996;28;20090;-73
2022/04/04 04:57:48;;;;;;;9.05;6.53;;;;;;;-1.67;74.33;100836.59;5053275;28;20037;-73
2022/04/04 05:00:16;;;;;;;10.05;6.30;;;;;;;-1.66;74.46;100833.13;5048949;28;20247;-72
2022/04/04 05:02:42;;;;;;;10.25;6.30;;;;;;;-1.67;74.76;100825.41;5043025;28;20166;-72
2022/04/04 05:05:08;;;;;;;9.68;6.82;;;;;;;-1.65;74.63;100829.59;5045166;28;20116;-72
2022/04/04 05:07:34;;;;;;;9.30;6.15;;;;;;;-1.63;74.34;100827.78;5051914;28;20728;-73
2022/04/04 05:09:59;;;;;;;9.98;6.43;;;;;;;-1.61;74.58;100827.72;5039466;28;20044;-72
2022/04/04 05:12:25;;;;;;;8.10;5.80;;;;;;;-1.59;74.57;100818.97;5050860;28;20510;-72
2022/04/04 05:14:50;;;;;;;11.30;7.47;;;;;;;-1.54;74.37;100818.78;5051492;28;20055;-73
2022/04/04 05:17:16;;;;;;;11.20;7.95;;;;;;;-1.51;74.86;100811.69;5052139;28;20037;-73
2022/04/04 05:19:42;;;;;;;13.80;8.23;;;;;;;-1.45;75.07;100815.78;5055223;28;20068;-74
2022/04/04 05:22:07;;;;;;;11.63;7.55;;;;;;;-1.38;75.24;100818.91;5049093;28;20037;-73
2022/04/04 05:24:34;;;;;;;11.82;7.55;;;;;;;-1.33;75.21;100815.22;5051777;28;20091;-73
2022/04/04 05:26:59;;;;;;;9.02;6.50;;;;;;;-1.27;74.92;100805.47;5050707;28;20048;-73
2022/04/04 05:29:26;;;;;;;11.90;7.90;;;;;;;-1.24;74.90;100814.00;5051319;28;20033;-73
2022/04/04 05:31:53;;;;;;;13.07;7.82;;;;;;;-1.20;75.30;100812.91;5031824;28;20037;-74
2022/04/04 05:34:20;;;;;;;11.90;8.30;;;;;;;-1.13;75.52;100816.06;5047769;28;20037;-74
2022/04/04 05:36:46;;;;;;;11.10;7.47;;;;;;;-1.10;75.22;100810.75;5051480;28;20061;-73
2022/04/04 05:39:11;;;;;;;13.35;8.38;;;;;;;-1.04;75.20;100812.22;5049988;28;20075;-73
2022/04/04 05:41:37;;;;;;;11.10;8.13;;;;;;;-0.99;75.37;100805.06;5051550;28;20029;-73
2022/04/04 05:44:04;;;;;;;11.57;7.93;;;;;;;-0.92;75.03;100804.72;5050382;28;20107;-74
2022/04/04 05:46:30;;;;;;;13.23;8.52;;;;;;;-0.83;75.27;100816.44;5051327;28;20060;-72
2022/04/04 05:48:55;;;;;;;10.20;7.38;;;;;;;-0.76;75.02;100812.63;5049589;28;20048;-74
2022/04/04 05:51:21;;;;;;;12.10;7.75;;;;;;;-0.63;74.78;100806.84;5051208;28;20076;-72
2022/04/04 05:53:47;;;;;;;11.13;7.18;;;;;;;-0.49;74.30;100814.81;5051318;28;20444;-72
2022/04/04 05:56:12;;;;;;;11.27;7.68;;;;;;;-0.32;74.12;100820.03;5028418;28;20029;-72
2022/04/04 05:58:38;;;;;;;12.23;7.55;;;;;;;-0.06;73.77;100816.16;5052185;28;20041;-72
2022/04/04 06:01:03;;;;;;;11.57;7.57;;;;;;;0.13;73.08;100821.25;5046814;28;20438;-73
2022/04/04 06:03:30;;;;;;;12.13;7.93;;;;;;;0.15;72.60;100819.44;5051926;28;20091;-72
2022/04/04 06:05:55;;;;;;;13.55;8.35;;;;;;;0.18;72.06;100808.88;5052815;28;20532;-72
2022/04/04 06:08:21;;;;;;;9.75;7.05;;;;;;;0.19;71.83;100810.56;5047922;28;20124;-72
2022/04/04 06:10:47;;;;;;;11.55;7.45;;;;;;;0.17;71.74;100814.16;5050324;28;20041;-72
2022/04/04 06:13:14;;;;;;;9.93;6.88;;;;;;;0.19;71.64;100813.16;5036390;28;20075;-72
2022/04/04 06:15:40;;;;;;;11.45;7.65;;;;;;;0.17;71.59;100816.75;5025103;28;20041;-72
2022/04/04 06:18:06;;;;;;;14.35;7.22;;;;;;;0.20;71.26;100814.00;5030482;28;20540;-74
2022/04/04 06:20:45;;;;;;;11.13;7.28;;;;;;;0.24;71.22;100812.94;5047232;28;20040;-74
2022/04/04 06:23:11;;;;;;;11.20;7.60;;;;;;;0.26;71.06;100818.88;5031695;28;20043;-72
2022/04/04 06:25:38;;;;;;;12.23;7.65;;;;;;;0.35;70.92;100804.56;5050813;28;20041;-72
2022/04/04 06:28:04;;;;;;;10.85;7.28;;;;;;;0.43;70.54;100807.63;5072101;28;20489;-74
2022/04/04 06:30:29;;;;;;;11.68;7.38;;;;;;;0.50;70.22;100805.50;5046062;28;20287;-74
2022/04/04 06:32:54;;;;;;;12.38;6.93;;;;;;;0.55;70.00;100809.56;5045289;28;20036;-75
2022/04/04 06:35:23;;;;;;;12.70;7.63;;;;;;;0.81;70.33;100807.31;5034540;28;20105;-75
2022/04/04 06:37:49;;;;;;;10.30;7.22;;;;;;;1.36;69.69;100801.72;5048799;28;20506;-73
2022/04/04 06:40:14;;;;;;;11.27;7.30;;;;;;;1.89;69.20;100804.81;5053648;28;20044;-74
2022/04/04 06:42:42;;;;;;;13.88;8.30;;;;;;;2.44;67.47;100801.53;5056744;28;20159;-72
2022/04/04 06:45:09;;;;;;;12.70;7.65;;;;;;;3.05;66.07;100806.50;5051484;28;20094;-73
2022/04/04 06:47:36;;;;;;;10.75;7.07;;;;;;;3.56;63.61;100799.72;5050177;28;20041;-75
2022/04/04 06:50:03;;;;;;;9.18;6.22;;;;;;;4.16;62.97;100800.13;5048991;28;20029;-75
2022/04/04 06:52:28;;;;;;;9.70;6.50;;;;;;;4.43;60.34;100793.03;5066044;28;20508;-73
2022/04/04 06:54:54;;;;;;;9.13;6.10;;;;;;;4.27;58.98;100800.25;5050087;28;20033;-75
2022/04/04 06:57:20;;;;;;;9.90;6.57;;;;;;;4.09;59.13;100791.03;5041784;28;20041;-72
2022/04/04 06:59:46;;;;;;;10.40;6.55;;;;;;;4.25;59.32;100787.25;5028805;28;20120;-72
2022/04/04 07:02:11;;;;;;;11.00;7.20;;;;;;;4.26;57.61;100790.72;5047660;28;20464;-72
2022/04/04 07:04:37;;;;;;;9.20;6.70;;;;;;;4.41;58.32;100783.59;5025839;28;20041;-72
2022/04/04 07:07:03;;;;;;;9.82;6.57;;;;;;;4.60;57.71;100780.53;5029802;28;20095;-73
2022/04/04 07:09:29;;;;;;;10.82;6.85;;;;;;;4.63;56.78;100777.72;5019059;28;20418;-73
2022/04/04 07:11:54;;;;;;;8.98;6.35;;;;;;;4.71;56.87;100777.16;5046200;28;20337;-73
2022/04/04 07:14:20;;;;;;;8.63;6.40;;;;;;;4.68;56.16;100776.44;5015506;28;20120;-73
2022/04/04 07:16:45;;;;;;;10.00;6.80;;;;;;;4.60;55.50;100783.16;5023918;28;20033;-73
2022/04/04 07:19:15;;;;;;;9.02;6.65;;;;;;;4.63;55.96;100773.31;5050054;28;20520;-73
2022/04/04 07:21:42;;;;;;;9.70;6.50;;;;;;;4.61;55.54;100774.38;5022185;28;20163;-73
2022/04/04 07:24:07;;;;;;;8.38;6.63;;;;;;;4.72;55.19;100769.22;5043831;28;20462;-73
2022/04/04 07:26:32;;;;;;;12.15;7.47;;;;;;;4.85;55.17;100770.00;5047118;28;20036;-73
2022/04/04 07:28:58;;;;;;;10.93;7.90;;;;;;;5.05;55.40;100768.59;5041367;28;20471;-73
2022/04/04 07:31:23;;;;;;;13.10;7.05;;;;;;;5.16;55.11;100766.97;5039584;28;20052;-73
2022/04/04 07:33:48;;;;;;;9.00;6.43;;;;;;;5.36;54.92;100760.28;5039177;28;20043;-73
2022/04/04 07:36:14;;;;;;;12.55;7.50;;;;;;;5.39;53.83;100770.56;5022168;28;20608;-73
2022/04/04 07:38:39;;;;;;;10.60;7.40;;;;;;;5.51;54.08;100770.50;5047128;28;20033;-73
2022/04/04 07:41:04;;;;;;;10.93;6.43;;;;;;;5.81;54.17;100778.81;5046713;28;20035;-73
2022/04/04 07:43:30;;;;;;;8.82;6.75;;;;;;;6.23;53.88;100768.69;5045567;28;20436;-73
2022/04/04 07:45:55;;;;;;;8.57;6.80;;;;;;;6.52;52.35;100762.00;5047049;28;20041;-73
2022/04/04 07:48:21;;;;;;;9.52;6.88;;;;;;;6.74;51.67;100766.38;5046633;28;20043;-73
2022/04/04 07:50:46;;;;;;;11.23;7.13;;;;;;;6.84;50.82;100765.66;5044933;28;20071;-73
2022/04/04 07:53:13;;;;;;;10.18;6.55;;;;;;;7.09;51.21;100759.31;5045845;28;20501;-73
2022/04/04 07:55:40;;;;;;;9.23;6.40;;;;;;;7.13;50.13;100750.22;5047965;28;20037;-73
2022/04/04 07:58:06;;;;;;;8.32;6.53;;;;;;;7.15;49.98;100743.88;5050614;28;20029;-73
2022/04/04 08:00:32;;;;;;;8.50;5.80;;;;;;;7.37;49.64;100742.94;5044563;28;20036;-73
2022/04/04 08:02:57;;;;;;;10.35;7.50;;;;;;;7.63;48.65;100742.59;5046796;28;20025;-73
2022/04/04 08:05:23;;;;;;;9.55;6.47;;;;;;;7.99;48.61;100737.84;5029270;28;20505;-73
2022/04/04 08:07:51;;;;;;;9.00;6.07;;;;;;;8.21;47.79;100736.84;5041485;28;20026;-73
2022/04/04 08:10:18;;;;;;;8.52;6.50;;;;;;;8.35;47.01;100731.22;5044061;28;20383;-73
2022/04/04 08:12:44;;;;;;;8.43;6.40;;;;;;;8.35;46.36;100736.50;5048195;28;20043;-73
2022/04/04 08:15:10;;;;;;;10.95;7.38;;;;;;;7.91;46.64;100729.75;5046667;28;20033;-73
2022/04/04 08:17:36;;;;;;;10.02;6.40;;;;;;;7.90;47.63;100722.81;5045445;28;20128;-73
2022/04/04 08:20:03;;;;;;;7.97;6.30;;;;;;;8.00;47.47;100718.44;5033650;28;20108;-73
2022/04/04 08:22:28;;;;;;;8.45;5.80;;;;;;;8.18;47.62;100722.13;5047423;28;20033;-73
2022/04/04 08:24:54;;;;;;;8.52;6.57;;;;;;;8.19;46.88;100718.53;5044001;28;20028;-74
2022/04/04 08:27:19;;;;;;;7.95;6.13;;;;;;;8.11;46.80;100715.72;5046348;28;20524;-73
2022/04/04 08:29:44;;;;;;;9.60;6.80;;;;;;;8.07;46.67;100720.41;5046728;28;20132;-73
2022/04/04 08:32:10;;;;;;;8.38;6.13;;;;;;;8.11;46.78;100714.91;5046940;28;20036;-73
2022/04/04 08:34:36;;;;;;;8.20;6.28;;;;;;;8.02;46.75;100706.81;5028015;28;20045;-73
2022/04/04 08:37:02;;;;;;;8.45;6.05;;;;;;;8.39;46.70;100701.03;5030272;28;20041;-73
2022/04/04 08:39:28;;;;;;;9.25;5.68;;;;;;;9.18;45.94;100704.69;5044172;28;20418;-73
2022/04/04 08:41:57;;;;;;;9.20;6.13;;;;;;;9.69;44.87;100708.81;5041195;28;20029;-73
2022/04/04 08:44:24;;;;;;;8.48;5.75;;;;;;;9.96;44.07;100703.63;5047175;28;20033;-73
2022/04/04 08:46:51;;;;;;;8.15;5.82;;;;;;;9.70;43.01;100706.03;5048140;28;20116;-73
2022/04/04 08:49:17;;;;;;;7.80;5.97;;;;;;;9.09;42.67;100690.50;5048381;28;20078;-73
2022/04/04 08:51:42;;;;;;;8.25;6.13;;;;;;;9.02;43.05;100684.94;5045965;28;20040;-73
2022/04/04 08:54:07;;;;;;;9.10;6.28;;;;;;;9.35;43.12;100691.59;5050790;28;20040;-73
2022/04/04 08:56:34;;;;;;;6.72;5.28;;;;;;;9.92;42.90;100691.66;5051206;28;20033;-73
2022/04/04 08:58:59;;;;;;;6.75;5.18;;;;;;;10.71;42.58;100685.06;5052422;28;20060;-73
2022/04/04 09:01:27;;;;;;;8.27;5.50;;;;;;;11.27;39.02;100678.69;5052158;28;20032;-73
2022/04/04 09:04:01;;;;;;;7.32;5.20;;;;;;;11.75;38.23;100668.59;5055655;28;20493;-74
2022/04/04 09:06:28;;;;;;;6.63;5.35;;;;;;;11.94;36.80;100664.94;5054035;28;20091;-74
2022/04/04 09:08:55;;;;;;;7.80;5.85;;;;;;;11.73;37.17;100656.47;5050717;28;20047;-74
2022/04/04 09:11:20;;;;;;;7.38;5.20;;;;;;;11.86;37.49;100660.38;5048502;28;20512;-74
2022/04/04 09:14:03;;;;;;;7.13;5.38;;;;;;;12.15;36.85;100653.09;5050204;28;20037;-74
2022/04/04 09:16:28;;;;;;;9.02;5.43;;;;;;;12.11;36.28;100652.59;5050390;28;20052;-73
2022/04/04 09:18:53;;;;;;;8.45;6.20;;;;;;;12.51;34.81;100649.28;5048404;28;20033;-74
2022/04/04 09:21:19;;;;;;;6.38;5.05;;;;;;;13.17;34.86;100646.72;5049631;28;20517;-74
2022/04/04 09:23:44;;;;;;;9.70;5.40;;;;;;;13.79;34.02;100641.69;5028874;28;20559;-74
2022/04/04 09:26:25;;;;;;;6.72;4.60;;;;;;;14.97;32.74;100632.00;5045127;28;20650;-74
2022/04/04 09:28:50;;;;;;;6.53;5.00;;;;;;;15.82;31.68;100631.75;5047032;28;20044;-74
2022/04/04 09:31:15;;;;;;;7.95;5.28;;;;;;;16.23;29.49;100617.94;5050706;28;20025;-74
2022/04/04 09:33:41;;;;;;;7.28;5.35;;;;;;;16.16;29.67;100624.19;5045923;28;20037;-74
2022/04/04 09:36:08;;;;;;;11.85;5.43;;;;;;;16.04;29.18;100624.69;5048109;28;20029;-74
2022/04/04 09:38:34;;;;;;;6.57;4.82;;;;;;;16.47;28.20;100613.25;5047667;28;20056;-73
2022/04/04 09:41:15;;;;;;;7.13;5.22;;;;;;;16.92;28.64;100609.47;5047746;28;20125;-73
2022/04/04 09:43:57;;;;;;;5.60;4.40;;;;;;;16.48;29.38;100598.91;5028299;28;20045;-73
2022/04/04 09:46:23;;;;;;;8.32;5.47;;;;;;;17.11;28.39;100600.00;5048448;28;20295;-73
2022/04/04 09:49:10;;;;;;;6.35;5.00;;;;;;;17.05;28.12;100602.59;5032547;28;20037;-74
2022/04/04 09:51:39;;;;;;;7.63;4.55;;;;;;;16.43;28.21;100579.97;5049318;28;20051;-73
2022/04/04 09:54:09;;;;;;;5.00;4.00;;;;;;;17.41;27.72;100575.72;5050094;28;20033;-73
2022/04/04 09:56:35;;;;;;;5.60;4.40;;;;;;;18.46;25.60;100577.28;5047362;28;20040;-73
2022/04/04 09:59:01;;;;;;;5.43;4.05;;;;;;;18.71;25.20;100575.88;5028237;28;20284;-74
2022/04/04 10:01:28;;;;;;;5.65;3.63;;;;;;;18.98;24.67;100568.72;5046477;28;20037;-74
2022/04/04 10:03:55;;;;;;;6.30;4.10;;;;;;;19.33;24.11;100566.66;5047143;28;20029;-74
2022/04/04 10:06:25;;;;;;;7.00;4.53;;;;;;;18.31;24.07;100549.03;5048571;28;20029;-73
2022/04/04 10:08:54;;;;;;;6.68;4.55;;;;;;;18.21;24.44;100541.34;5048702;28;20056;-73
2022/04/04 10:11:22;;;;;;;5.10;3.90;;;;;;;18.84;23.94;100541.91;5029809;28;20045;-73
2022/04/04 10:13:48;;;;;;;6.55;4.40;;;;;;;19.23;23.03;100539.41;5026707;28;20119;-73
2022/04/04 10:16:14;;;;;;;4.20;3.40;;;;;;;19.91;23.43;100531.84;5049602;28;20056;-73
2022/04/04 10:18:43;;;;;;;4.47;3.83;;;;;;;20.38;22.79;100520.88;5052868;28;20049;-74
2022/04/04 10:21:10;;;;;;;5.20;4.30;;;;;;;20.11;21.98;100531.72;5032965;28;20438;-74
2022/04/04 10:23:38;;;;;;;4.82;3.63;;;;;;;20.40;22.51;100520.63;5055939;28;20079;-74
2022/04/04 10:26:06;;;;;;;5.15;3.90;;;;;;;20.84;21.65;100516.22;5034922;28;20563;-73
2022/04/04 10:28:39;;;;;;;6.15;4.43;;;;;;;21.22;20.88;100508.00;5047792;28;20033;-74
2022/04/04 10:31:16;;;;;;;6.05;4.25;;;;;;;21.33;20.49;100507.28;5049832;28;20509;-74
2022/04/04 10:33:43;;;;;;;6.05;4.43;;;;;;;21.24;20.15;100500.53;5049425;28;20131;-74
2022/04/04 10:36:15;;;;;;;5.45;4.00;;;;;;;20.80;20.91;100499.69;5048500;28;20501;-74
2022/04/04 10:38:57;;;;;;;7.32;3.80;;;;;;;20.25;21.90;100488.72;5052269;28;20075;-74
2022/04/04 10:41:27;;;;;;;5.00;3.80;;;;;;;18.28;22.79;100485.16;5038262;28;20175;-73
2022/04/04 10:43:55;;;;;;;4.70;3.65;;;;;;;18.53;22.96;100472.03;5050379;28;20033;-73
2022/04/04 10:46:22;;;;;;;5.25;3.90;;;;;;;19.85;22.42;100470.94;5039298;28;20036;-76
2022/04/04 10:49:09;;;;;;;5.75;3.97;;;;;;;19.04;22.68;100466.03;5039188;28;20432;-75
2022/04/04 10:51:36;;;;;;;5.00;3.78;;;;;;;18.52;23.49;100462.34;5048167;28;20039;-76
2022/04/04 10:54:10;;;;;;;5.50;3.50;;;;;;;18.44;23.20;100461.50;5045375;28;20516;-76
2022/04/04 10:56:44;;;;;;;5.40;3.80;;;;;;;17.62;23.86;100457.19;5043569;28;20415;-75
2022/04/04 10:59:15;;;;;;;5.72;3.80;;;;;;;18.18;23.05;100451.59;5019899;28;20039;-75
2022/04/04 11:01:47;;;;;;;7.25;4.18;;;;;;;18.13;22.73;100442.53;5010938;28;20034;-75
2022/04/04 11:04:25;;;;;;;;;;;;;;;18.10;23.20;100442.94;5035575;28;20505;-74
2022/04/04 11:09:51;;;;;;;5.63;4.63;;;;;;;16.30;24.85;100420.53;5046778;28;20444;-75
2022/04/04 11:12:18;;;;;;;6.38;4.80;;;;;;;17.25;24.42;100421.03;5032954;28;20406;-75
2022/04/04 11:14:47;;;;;;;5.32;4.10;;;;;;;18.81;23.36;100402.22;5042995;28;20609;-76
2022/04/04 11:17:17;;;;;;;5.35;4.07;;;;;;;19.07;22.94;100396.78;5023139;28;20045;-75
2022/04/04 11:19:49;;;;;;;8.82;4.93;;;;;;;18.31;22.99;100402.63;5035962;28;20033;-73
2022/04/04 11:22:16;;;;;;;5.57;4.10;;;;;;;17.58;24.56;100395.25;5042523;28;20064;-73
2022/04/04 11:24:55;;;;;;;5.50;4.22;;;;;;;17.44;24.57;100384.72;5035103;28;20474;-75
2022/04/04 11:27:23;;;;;;;7.43;4.78;;;;;;;16.44;25.27;100384.94;5038098;28;20029;-75
2022/04/04 11:29:49;;;;;;;7.00;4.72;;;;;;;15.92;25.32;100386.97;5026898;28;20414;-73